Time;durP1;ratioP1;P1;durP2;ratioP2;P2;SDS_P1;SDS_P2;PMS_P1;PMS_P2;Temp;Humidity;BMP_temperature;BMP_pressure;BME280_temperature;BME280_humidity;BME280_pressure;Samples;Min_cycle;Max_cycle;Signal;HPM_P1;HPM_P2
2022/10/21 00:02:14;;;;;;;28.75;16.20;;;;;;;;;;6220124;23;20091;-74
2022/10/21 00:04:40;;;;;;;25.48;15.25;;;;;;;;;;6220222;23;20107;-74
2022/10/21 00:07:06;;;;;;;22.75;15.48;;;;;;;;;;6170585;23;20016;-75
2022/10/21 00:09:32;;;;;;;25.85;16.25;;;;;;;;;;6195201;23;20087;-75
2022/10/21 00:11:58;;;;;;;30.83;15.40;;;;;;;;;;6195187;23;20012;-75
2022/10/21 00:14:24;;;;;;;23.45;15.43;;;;;;;;;;6220349;23;20442;-74
2022/10/21 00:16:50;;;;;;;25.75;15.63;;;;;;;;;;6220264;23;20019;-74
2022/10/21 00:19:16;;;;;;;24.88;15.68;;;;;;;;;;6195493;23;20023;-74
2022/10/21 00:21:42;;;;;;;24.48;16.27;;;;;;;;;;6220241;23;20094;-75
2022/10/21 00:24:09;;;;;;;30.35;16.48;;;;;;;;;;6195139;23;20023;-74
2022/10/21 00:26:35;;;;;;;29.67;16.27;;;;;;;;;;6220193;23;20016;-74
2022/10/21 00:29:01;;;;;;;27.50;16.65;;;;;;;;;;6220053;23;20019;-74
2022/10/21 00:31:27;;;;;;;28.35;14.93;;;;;;;;;;6219929;23;20008;-74
2022/10/21 00:33:53;;;;;;;22.35;15.02;;;;;;;;;;6220125;23;20031;-72
2022/10/21 00:36:19;;;;;;;26.35;16.67;;;;;;;;;;6220153;23;20012;-72
2022/10/21 00:38:47;;;;;;;25.15;15.85;;;;;;;;;;6220049;23;20012;-72
2022/10/21 00:41:14;;;;;;;22.50;14.85;;;;;;;;;;6219884;23;20015;-71
2022/10/21 00:43:59;;;;;;;23.88;16.30;;;12.10;99.90;;;;;;6219636;23;20023;-72
2022/10/21 00:46:29;;;;;;;24.95;16.08;;;;;;;;;;6219832;23;20101;-72
2022/10/21 00:48:57;;;;;;;26.58;16.60;;;;;;;;;;6219808;23;20012;-72
2022/10/21 00:51:23;;;;;;;25.58;16.63;;;;;;;;;;6194619;23;20014;-72
2022/10/21 00:53:49;;;;;;;32.63;17.15;;;;;;;;;;6218706;23;20394;-72
2022/10/21 00:56:23;;;;;;;23.52;16.08;;;;;;;;;;6219307;23;20043;-72
2022/10/21 00:58:50;;;;;;;29.42;15.18;;;;;;;;;;6220051;23;20040;-72
2022/10/21 01:01:16;;;;;;;26.77;16.00;;;;;;;;;;6194660;23;20111;-72
2022/10/21 01:03:42;;;;;;;28.30;16.15;;;;;;;;;;6219668;23;20016;-72
2022/10/21 01:06:10;;;;;;;30.80;18.60;;;;;;;;;;6194676;23;20016;-72
2022/10/21 01:08:36;;;;;;;26.23;16.05;;;;;;;;;;6219675;23;20039;-72
2022/10/21 01:11:03;;;;;;;28.95;16.05;;;;;;;;;;6219171;23;20012;-71
2022/10/21 01:13:32;;;;;;;27.92;15.98;;;;;;;;;;6219879;23;20092;-72
2022/10/21 01:16:20;;;;;;;29.13;17.40;;;;;;;;;;6219737;23;20438;-72
2022/10/21 01:18:51;;;;;;;27.08;17.08;;;;;;;;;;6219458;23;20048;-72
2022/10/21 01:21:23;;;;;;;24.25;16.15;;;;;;;;;;6219645;23;20044;-72
2022/10/21 01:24:08;;;;;;;24.40;16.10;;;;;;;;;;6219469;23;20047;-72
2022/10/21 01:27:15;;;;;;;30.45;17.02;;;11.90;99.90;;;;;;6219343;23;20434;-72
2022/10/21 01:29:59;;;;;;;27.92;16.42;;;;;;;;;;6219351;23;20012;-72
2022/10/21 01:32:49;;;;;;;25.52;16.17;;;;;;;;;;6219320;23;20468;-72
2022/10/21 01:35:21;;;;;;;27.67;15.88;;;;;;;;;;6207636;23;20382;-72
2022/10/21 01:38:05;;;;;;;26.52;16.10;;;;;;;;;;6219293;23;20066;-72
2022/10/21 01:40:35;;;;;;;29.42;17.05;;;;;;;;;;6219232;23;20123;-72
2022/10/21 01:43:07;;;;;;;30.50;16.85;;;;;;;;;;6194118;23;20023;-72
2022/10/21 01:45:48;;;;;;;27.05;15.98;;;;;;;;;;6219300;23;20515;-72
2022/10/21 01:48:23;;;;;;;28.33;16.58;;;;;;;;;;6219133;23;20098;-72
2022/10/21 01:51:00;;;;;;;29.48;17.02;;;;;;;;;;6219954;23;20012;-72
2022/10/21 01:53:28;;;;;;;28.48;16.65;;;;;;;;;;6219777;23;20012;-72
2022/10/21 01:55:55;;;;;;;32.30;17.15;;;;;;;;;;6219492;23;20434;-72
2022/10/21 01:58:26;;;;;;;24.27;15.65;;;;;;;;;;6218988;23;20047;-71
2022/10/21 02:00:53;;;;;;;26.92;16.67;;;;;;;;;;6219277;23;20016;-72
2022/10/21 02:03:22;;;;;;;39.28;17.42;;;;;;;;;;6193929;23;20031;-72
2022/10/21 02:05:48;;;;;;;37.72;17.45;;;;;;;;;;6219143;23;20020;-72
2022/10/21 02:08:14;;;;;;;26.08;16.42;;;;;;;;;;6218825;23;20019;-71
2022/10/21 02:10:42;;;;;;;29.83;16.35;;;;;;;;;;6193896;23;20016;-72
2022/10/21 02:13:10;;;;;;;33.60;16.67;;;;;;;;;;6219188;23;20087;-72
2022/10/21 02:15:37;;;;;;;30.35;18.20;;;;;;;;;;6219086;23;20012;-71
2022/10/21 02:18:17;;;;;;;28.85;16.77;;;;;;;;;;6219154;23;20027;-72
2022/10/21 02:20:44;;;;;;;30.33;17.35;;;;;;;;;;6218793;23;20454;-72
2022/10/21 02:23:12;;;;;;;29.23;17.48;;;;;;;;;;6218953;23;20094;-72
2022/10/21 02:25:40;;;;;;;26.95;16.88;;;;;;;;;;6218930;23;20023;-72
2022/10/21 02:28:06;;;;;;;28.10;17.52;;;;;;;;;;6218857;23;20023;-71
2022/10/21 02:30:37;;;;;;;28.67;17.23;;;;;;;;;;6219071;23;20094;-72
2022/10/21 02:33:08;;;;;;;27.73;17.67;;;;;;;;;;6218970;23;20012;-71
2022/10/21 02:35:49;;;;;;;27.85;17.42;;;;;;;;;;6219173;23;20062;-71
2022/10/21 02:38:25;;;;;;;25.65;16.77;;;;;;;;;;6219038;23;20016;-72
2022/10/21 02:40:53;;;;;;;30.48;17.38;;;;;;;;;;6194053;23;20020;-72
2022/10/21 02:43:25;;;;;;;26.17;17.67;;;;;;;;;;6218822;23;20103;-73
2022/10/21 02:45:54;;;;;;;31.10;17.92;;;;;;;;;;6219112;23;20016;-72
2022/10/21 02:48:20;;;;;;;29.88;17.10;;;;;;;;;;6193938;23;20115;-71
2022/10/21 02:50:46;;;;;;;28.70;17.73;;;;;;;;;;6218769;23;20438;-71
2022/10/21 02:53:13;;;;;;;30.60;17.50;;;;;;;;;;6169252;23;20009;-72
2022/10/21 02:55:39;;;;;;;31.52;18.23;;;;;;;;;;6218850;23;20013;-72
2022/10/21 02:58:05;;;;;;;29.92;17.98;;;;;;;;;;6218718;23;20091;-72
2022/10/21 03:00:31;;;;;;;28.20;17.48;;;;;;;;;;6218826;23;20016;-72
2022/10/21 03:02:57;;;;;;;28.30;17.60;;;;;;;;;;6218678;23;20016;-72
2022/10/21 03:05:23;;;;;;;34.00;18.40;;;;;;;;;;6219038;23;20338;-72
2022/10/21 03:07:49;;;;;;;30.90;17.65;;;;;;;;;;6193694;22;20070;-72
2022/10/21 03:10:15;;;;;;;33.17;17.58;;;;;;;;;;6194015;23;20012;-72
2022/10/21 03:12:41;;;;;;;29.88;17.48;;;;;;;;;;6193639;23;20016;-72
2022/10/21 03:15:08;;;;;;;30.10;16.33;;;;;;;;;;6218811;23;20009;-73
2022/10/21 03:17:34;;;;;;;31.63;17.85;;;;;;;;;;6218628;23;20020;-72
2022/10/21 03:20:00;;;;;;;31.25;17.58;;;;;;;;;;6218754;23;20020;-73
2022/10/21 03:22:26;;;;;;;27.55;17.45;;;;;;;;;;6218723;23;20338;-72
2022/10/21 03:24:52;;;;;;;29.35;16.88;;;;;;;;;;6218717;23;20062;-72
2022/10/21 03:27:18;;;;;;;29.05;17.88;;;;;;;;;;6218552;23;20016;-72
2022/10/21 03:29:44;;;;;;;30.63;18.27;;;;;;;;;;6193838;23;20004;-72
2022/10/21 03:32:10;;;;;;;30.95;17.42;;;;;;;;;;6218738;23;20027;-72
2022/10/21 03:34:36;;;;;;;30.38;17.73;;;;;;;;;;6219379;23;20061;-71
2022/10/21 03:37:02;;;;;;;31.92;17.90;;;;;;;;;;6220687;23;20020;-72
2022/10/21 03:39:28;;;;;;;33.60;19.85;;;;;;;;;;6195303;23;20023;-72
2022/10/21 03:41:54;;;;;;;33.80;19.23;;;;;;;;;;6220400;23;20016;-72
2022/10/21 03:44:20;;;;;;;28.33;17.48;;;;;;;;;;6219985;23;20031;-72
2022/10/21 03:46:46;;;;;;;32.60;17.67;;;;;;;;;;6220341;23;20020;-72
2022/10/21 03:49:13;;;;;;;29.17;17.33;;;;;;;;;;6195521;23;20012;-72
2022/10/21 03:51:40;;;;;;;28.50;16.58;;;;;;;;;;6195582;23;20008;-72
2022/10/21 03:54:06;;;;;;;29.83;17.60;;;;;;;;;;6195238;23;20020;-72
2022/10/21 03:56:32;;;;;;;30.25;16.52;;;;;;;;;;6220450;23;20020;-72
2022/10/21 03:58:58;;;;;;;30.77;17.90;;;;;;;;;;6220355;23;20034;-72
2022/10/21 04:01:24;;;;;;;27.35;16.38;;;;;;;;;;6195576;23;20020;-72
2022/10/21 04:03:50;;;;;;;25.48;16.75;;;;;;;;;;6195180;23;20473;-72
2022/10/21 04:06:16;;;;;;;30.15;16.77;;;;;;;;;;6219928;23;20109;-72
2022/10/21 04:08:42;;;;;;;30.85;17.75;;;;;;;;;;6219993;23;20008;-72
2022/10/21 04:11:08;;;;;;;27.05;16.15;;;;;;;;;;6220197;23;20012;-72
2022/10/21 04:13:34;;;;;;;27.90;16.20;;;;;;;;;;6220192;23;20446;-72
2022/10/21 04:16:01;;;;;;;31.17;16.38;;;;;;;;;;6195351;23;20051;-72
2022/10/21 04:18:28;;;;;;;25.55;16.08;;;;;;;;;;6220232;23;20107;-72
2022/10/21 04:20:54;;;;;;;30.13;16.52;;;;;;;;;;6220250;23;20012;-72
2022/10/21 04:23:20;;;;;;;38.28;18.05;;;;;;;;;;6220216;23;20016;-72
2022/10/21 04:25:46;;;;;;;26.02;15.55;;;;;;;;;;6220270;23;20024;-72
2022/10/21 04:28:12;;;;;;;27.63;15.73;;;;;;;;;;6219955;23;20016;-72
2022/10/21 04:30:38;;;;;;;29.98;16.17;;;;;;;;;;6195150;23;20020;-72
2022/10/21 04:33:04;;;;;;;32.55;15.40;;;;;;;;;;6220197;23;20484;-72
2022/10/21 04:35:31;;;;;;;27.67;15.85;;;;;;;;;;6195082;23;20058;-72
2022/10/21 04:37:59;;;;;;;32.45;16.27;;;;;;;;;;6220182;23;20016;-72
2022/10/21 04:40:25;;;;;;;28.40;16.05;;;;;;;;;;6220051;23;20023;-72
2022/10/21 04:42:51;;;;;;;27.10;15.93;;;;;;;;;;6219841;23;20381;-72
2022/10/21 04:45:17;;;;;;;29.05;16.35;;;;;;;;;;6219655;23;20078;-72
2022/10/21 04:47:44;;;;;;;26.05;15.73;;;;;;;;;;6194999;23;20076;-72
2022/10/21 04:50:10;;;;;;;31.05;16.60;;;;;;;;;;6219892;23;20511;-72
2022/10/21 04:52:36;;;;;;;35.03;18.05;;;;;;;;;;6219889;23;20023;-72
2022/10/21 04:55:03;;;;;;;35.33;17.10;;;;;;;;;;6219873;23;20342;-72
2022/10/21 04:57:29;;;;;;;31.10;17.50;;;;;;;;;;6194780;23;20031;-71
2022/10/21 04:59:55;;;;;;;35.72;17.98;;;;;;;;;;6219683;23;20012;-71
2022/10/21 05:02:21;;;;;;;32.38;18.15;;;;;;;;;;6219804;23;20450;-72
2022/10/21 05:04:48;;;;;;;35.72;17.75;;;;;;;;;;6194453;23;20034;-71
2022/10/21 05:07:14;;;;;;;34.58;18.35;;;;;;;;;;6219500;23;20019;-72
2022/10/21 05:09:40;;;;;;;32.00;17.23;;;;;;;;;;6194593;23;20440;-72
2022/10/21 05:12:06;;;;;;;27.60;17.02;;;;;;;;;;6194677;23;20434;-72
2022/10/21 05:14:32;;;;;;;31.27;17.15;;;;;;;;;;6194391;23;20008;-72
2022/10/21 05:16:58;;;;;;;31.88;17.52;;;;;;;;;;6219572;23;20016;-71
2022/10/21 05:19:24;;;;;;;35.13;18.60;;;;;;;;;;6219026;23;20012;-74
2022/10/21 05:21:50;;;;;;;37.40;19.23;;;;;;;;;;6219641;23;20024;-74
2022/10/21 05:24:17;;;;;;;30.38;18.33;;;;;;;;;;6219730;23;20012;-74
2022/10/21 05:26:43;;;;;;;31.92;16.85;;;;;;;;;;6219376;23;20012;-74
2022/10/21 05:29:09;;;;;;;38.67;18.45;;;;;;;;;;6218914;23;20061;-74
2022/10/21 05:31:35;;;;;;;42.00;19.33;;;;;;;;;;6219541;23;20471;-74
2022/10/21 05:34:02;;;;;;;34.03;18.65;;;;;;;;;;6194377;23;20404;-74
2022/10/21 05:36:28;;;;;;;34.97;18.33;;;;;;;;;;6194429;23;20012;-74
2022/10/21 05:38:54;;;;;;;37.55;19.45;;;;;;;;;;6219110;23;20019;-74
2022/10/21 05:41:20;;;;;;;34.78;18.73;;;;;;;;;;6219016;23;20008;-74
2022/10/21 05:43:46;;;;;;;37.92;18.65;;;;;;;;;;6219137;22;20031;-74
2022/10/21 05:46:12;;;;;;;31.80;17.75;;;;;;;;;;6219009;23;20047;-74
2022/10/21 05:48:38;;;;;;;34.85;18.48;;;;;;;;;;6219044;23;20099;-74
2022/10/21 05:51:07;;;;;;;39.22;18.23;;;;;;;;;;6218894;23;20016;-74
2022/10/21 05:53:33;;;;;;;33.05;18.15;;;;;;;;;;6219269;23;20043;-74
2022/10/21 05:56:04;;;;;;;35.28;19.15;;;;;;;;;;6219002;23;20012;-73
2022/10/21 05:58:31;;;;;;;36.75;19.02;;;;;;;;;;6217690;23;20030;-74
2022/10/21 06:00:57;;;;;;;33.20;17.67;;;;;;;;;;6192549;23;20413;-74
2022/10/21 06:03:24;;;;;;;36.78;18.50;;;;;;;;;;6217944;23;20354;-75
2022/10/21 06:05:51;;;;;;;34.17;19.20;;;;;;;;;;6219193;23;20022;-75
2022/10/21 06:08:17;;;;;;;33.45;18.27;;;;;;;;;;6219268;23;20012;-74
2022/10/21 06:10:44;;;;;;;29.27;17.88;;;;;;;;;;6219168;23;20008;-73
2022/10/21 06:13:10;;;;;;;30.25;17.77;;;;;;;;;;6219366;23;20445;-74
2022/10/21 06:15:36;;;;;;;36.55;19.17;;;;;;;;;;6219433;23;20057;-74
2022/10/21 06:18:02;;;;;;;32.80;18.25;;;;;;;;;;6219265;23;20087;-73
2022/10/21 06:20:28;;;;;;;31.75;18.27;;;;;;;;;;6219332;23;20016;-73
2022/10/21 06:22:54;;;;;;;34.28;18.95;;;;;;;;;;6194432;23;20519;-74
2022/10/21 06:25:20;;;;;;;38.33;18.02;;;;;;;;;;6169625;23;20477;-74
2022/10/21 06:27:46;;;;;;;36.63;18.52;;;;;;;;;;6219159;23;20020;-73
2022/10/21 06:30:12;;;;;;;35.65;18.13;;;;;;;;;;6219016;23;20012;-74
2022/10/21 06:32:39;;;;;;;31.40;17.92;;;;;;;;;;6219010;23;20070;-74
2022/10/21 06:35:05;;;;;;;33.65;17.88;;;;;;;;;;6219054;23;20039;-73
2022/10/21 06:37:31;;;;;;;34.65;17.40;;;;;;;;;;6218948;23;20353;-74
2022/10/21 06:39:57;;;;;;;43.75;19.83;;;;;;;;;;6219099;23;20393;-74
2022/10/21 06:42:23;;;;;;;33.67;18.13;;;;;;;;;;6219303;23;20024;-74
2022/10/21 06:44:49;;;;;;;35.78;19.23;;;;;;;;;;6213944;23;20020;-73
2022/10/21 06:47:16;;;;;;;35.00;18.58;;;;;;;;;;6214192;23;20040;-74
2022/10/21 06:49:42;;;;;;;38.03;19.42;;;;;;;;;;6214143;23;20031;-74
2022/10/21 06:52:08;;;;;;;35.28;18.98;;;;;;;;;;6214115;23;20012;-73
2022/10/21 06:54:34;;;;;;;43.65;18.88;;;;;;;;;;6213981;23;20338;-73
2022/10/21 06:57:00;;;;;;;36.75;18.92;;;;;;;;;;6213741;23;20017;-74
2022/10/21 06:59:26;;;;;;;36.65;18.45;;;;;;;;;;6213832;23;20024;-74
2022/10/21 07:01:52;;;;;;;31.77;18.58;;;;;;;;;;6189047;23;20044;-73
2022/10/21 07:04:18;;;;;;;31.58;18.08;;;;;;;;;;6213979;23;20038;-73
2022/10/21 07:06:45;;;;;;;31.42;18.70;;;;;;;;;;6213742;23;20091;-73
2022/10/21 07:09:11;;;;;;;37.20;19.75;;;;;;;;;;6214246;23;20013;-74
2022/10/21 07:11:37;;;;;;;35.45;18.77;;;;;;;;;;6190995;23;20071;-74
2022/10/21 07:14:03;;;;;;;37.78;18.88;;;;;;;;;;6191086;23;20116;-74
2022/10/21 07:16:31;;;;;;;31.80;18.90;;;;;;;;;;6215870;23;20017;-73
2022/10/21 07:18:57;;;;;;;39.45;19.25;;;;;;;;;;6190867;23;20043;-74
2022/10/21 07:21:24;;;;;;;34.25;18.40;;;;;;;;;;6215869;23;20066;-74
2022/10/21 07:23:51;;;;;;;41.80;21.40;;;;;;;;;;6215842;23;20023;-73
2022/10/21 07:26:19;;;;;;;35.33;20.10;;;;;;;;;;6215865;23;20067;-73
2022/10/21 07:28:46;;;;;;;38.00;19.02;;;;;;;;;;6215673;23;20016;-73
2022/10/21 07:31:21;;;;;;;38.22;20.20;;;;;;;;;;6190688;23;20012;-73
2022/10/21 07:33:49;;;;;;;35.92;19.45;;;;;;;;;;6190643;23;20044;-74
2022/10/21 07:36:17;;;;;;;36.63;19.15;;;;;;;;;;6215691;23;20016;-73
2022/10/21 07:38:45;;;;;;;45.05;22.00;;;;;;;;;;6215587;23;20008;-73
2022/10/21 07:41:16;;;;;;;34.92;19.27;;;;;;;;;;6215557;23;20027;-74
2022/10/21 07:43:42;;;;;;;37.30;20.08;;;;;;;;;;6216751;22;20009;-73
2022/10/21 07:46:08;;;;;;;39.35;19.73;;;;;;;;;;6221200;23;20052;-73
2022/10/21 07:48:34;;;;;;;37.15;19.90;;;;;;;;;;6220518;23;20087;-74
2022/10/21 07:51:04;;;;;;;38.80;19.42;;;;;;;;;;6195481;23;20008;-73
2022/10/21 07:53:31;;;;;;;43.10;20.00;;;;;;;;;;6220494;23;20019;-73
2022/10/21 07:56:01;;;;;;;40.25;20.05;;;;;;;;;;6195421;23;20008;-73
2022/10/21 07:58:27;;;;;;;43.30;19.67;;;;;;;;;;6220271;23;20035;-73
2022/10/21 08:00:56;;;;;;;35.85;18.55;;;;;;;;;;6220316;23;20394;-73
2022/10/21 08:03:22;;;;;;;41.03;19.80;;;;;;;;;;6220263;23;20449;-73
2022/10/21 08:05:48;;;;;;;33.25;18.48;;;;;;;;;;6220295;23;20018;-73
2022/10/21 08:08:14;;;;;;;31.70;20.00;;;;;;;;;;6220258;23;20016;-73
2022/10/21 08:10:41;;;;;;;35.55;18.90;;;;;;;;;;6220368;23;20039;-73
2022/10/21 08:13:07;;;;;;;32.15;19.40;;;;;;;;;;6220414;23;20012;-73
2022/10/21 08:15:33;;;;;;;37.13;19.58;;;;;;;;;;6220394;23;20031;-73
2022/10/21 08:17:59;;;;;;;37.05;20.65;;;;;;;;;;6220335;23;20096;-73
2022/10/21 08:20:25;;;;;;;33.95;19.48;;;;;;;;;;6220161;23;20416;-73
2022/10/21 08:22:51;;;;;;;30.83;18.17;;;;;;;;;;6220841;23;20016;-74
2022/10/21 08:25:17;;;;;;;33.47;18.67;;;;;;;;;;6195445;23;20020;-73
2022/10/21 08:27:43;;;;;;;31.27;17.80;;;;;;;;;;6195071;23;20016;-73
2022/10/21 08:30:09;;;;;;;32.47;18.13;;;;;;;;;;6195115;23;20008;-73
2022/10/21 08:32:35;;;;;;;36.60;19.35;;;;;;;;;;6220045;23;20013;-73
2022/10/21 08:35:01;;;;;;;30.40;16.98;;;;;;;;;;6220176;23;20054;-73
2022/10/21 08:37:27;;;;;;;32.92;18.40;;;;;;;;;;6220044;23;20016;-73
2022/10/21 08:39:53;;;;;;;33.90;17.80;;;;;;;;;;6220040;23;20019;-73
2022/10/21 08:42:20;;;;;;;32.85;18.45;;;;;;;;;;6219950;23;20442;-73
2022/10/21 08:44:59;;;;;;;32.90;17.85;;;;;;;;;;6194841;23;20076;-73
2022/10/21 08:47:44;;;;;;;32.88;17.92;;;;;;;;;;6219984;23;20350;-73
2022/10/21 08:50:15;;;;;;;32.25;16.95;;;;;;;;;;6194981;23;20012;-73
2022/10/21 08:52:50;;;;;;;29.05;17.35;;;;;;;;;;6219905;23;20091;-73
2022/10/21 08:55:20;;;;;;;29.10;17.70;;;;;;;;;;6219912;23;20012;-73
2022/10/21 08:57:47;;;;;;;28.85;18.33;;;;;;;;;;6219959;23;20442;-73
2022/10/21 09:00:15;;;;;;;32.17;17.80;;;;;;;;;;6219919;23;20062;-73
2022/10/21 09:03:13;;;;;;;34.63;18.52;;;14.00;99.90;;;;;;6194807;23;20504;-73
2022/10/21 09:05:54;;;;;;;34.63;17.77;;;;;;;;;;6179685;23;20016;-73
2022/10/21 09:08:25;;;;;;;31.05;17.30;;;;;;;;;;6219649;23;20457;-73
2022/10/21 09:11:03;;;;;;;33.05;18.25;;;;;;;;;;6246593;23;20020;-73
2022/10/21 09:13:29;;;;;;;31.38;17.42;;;;;;;;;;6219924;23;20426;-73
2022/10/21 09:16:24;;;;;;;28.73;17.15;;;;;;;;;;6219799;23;20082;-73
2022/10/21 09:19:11;;;;;;;34.88;17.23;;;;;;;;;;6200747;23;20052;-73
2022/10/21 09:21:46;;;;;;;28.35;15.48;;;;;;;;;;6219672;23;20020;-73
2022/10/21 09:24:13;;;;;;;28.70;17.17;;;;;;;;;;6246473;23;20012;-73
2022/10/21 09:26:44;;;;;;;29.52;15.65;;;;;;;;;;6219593;23;20008;-73
2022/10/21 09:29:13;;;;;;;27.40;15.05;;;;;;;;;;6194537;23;20012;-73
2022/10/21 09:31:39;;;;;;;28.45;15.70;;;;;;;;;;6219261;23;20022;-73
2022/10/21 09:34:14;;;;;;;25.25;15.00;;;14.40;99.90;;;;;;6219546;23;20046;-73
2022/10/21 09:36:46;;;;;;;26.88;14.52;;;;;;;;;;6194572;23;20347;-73
2022/10/21 09:39:13;;;;;;;27.77;15.98;;;;;;;;;;6219608;23;20434;-73
2022/10/21 09:41:41;;;;;;;27.73;14.82;;;;;;;;;;6219384;23;20098;-73
2022/10/21 09:44:10;;;;;;;35.08;15.57;;;;;;;;;;6219276;23;20351;-73
2022/10/21 09:46:37;;;;;;;27.88;14.93;;;;;;;;;;6221645;23;20016;-73
2022/10/21 09:49:03;;;;;;;23.10;14.48;;;;;;;;;;6219502;23;20012;-73
2022/10/21 09:51:32;;;;;;;25.67;12.98;;;;;;;;;;6219540;23;20012;-73
2022/10/21 09:54:04;;;;;;;27.35;14.80;;;;;;;;;;6219360;23;20012;-73
2022/10/21 09:56:34;;;;;;;;;;;14.30;99.90;;;;;;6219822;23;20384;-73
2022/10/21 09:59:03;;;;;;;26.90;13.80;;;;;;;;;;6219475;23;19915;-73
2022/10/21 10:01:30;;;;;;;25.63;14.45;;;;;;;;;;6219468;23;20047;-73
2022/10/21 10:03:56;;;;;;;27.65;13.52;;;;;;;;;;6219876;23;20020;-73
2022/10/21 10:06:39;;;;;;;22.40;12.32;;;;;;;;;;6195342;23;20012;-73
2022/10/21 10:09:07;;;;;;;22.90;12.75;;;;;;;;;;6219316;23;20085;-73
2022/10/21 10:11:33;;;;;;;22.45;12.55;;;;;;;;;;6219353;23;20601;-73
2022/10/21 10:14:16;;;;;;;22.98;13.20;;;;;;;;;;6219720;23;20008;-73
2022/10/21 10:16:42;;;;;;;22.23;12.77;;;;;;;;;;6194145;23;20020;-73
2022/10/21 10:19:34;;;;;;;22.50;12.90;;;;;;;;;;6219223;23;20009;-73
2022/10/21 10:22:08;;;;;;;21.55;12.73;;;;;;;;;;6215223;23;20012;-73
2022/10/21 10:24:35;;;;;;;22.23;14.27;;;;;;;;;;6219196;23;20042;-73
2022/10/21 10:27:13;;;;;;;28.80;14.70;;;;;;;;;;6219111;23;20020;-73
2022/10/21 10:29:40;;;;;;;30.77;14.40;;;;;;;;;;6219209;23;20019;-73
2022/10/21 10:32:11;;;;;;;26.38;13.48;;;;;;;;;;6219203;23;20008;-72
2022/10/21 10:34:39;;;;;;;23.73;13.75;;;;;;;;;;6219809;23;20082;-73
2022/10/21 10:37:07;;;;;;;23.45;13.18;;;;;;;;;;6194343;23;20106;-73
2022/10/21 10:39:35;;;;;;;23.23;13.48;;;;;;;;;;6219196;23;20446;-73
2022/10/21 10:42:02;;;;;;;26.63;13.25;;;;;;;;;;6218851;23;20099;-73
2022/10/21 10:44:32;;;;;;;24.77;13.88;;;;;;;;;;6195646;23;20103;-73
2022/10/21 10:47:00;;;;;;;21.33;12.77;;;;;;;;;;6195918;23;20012;-73
2022/10/21 10:49:27;;;;;;;23.50;13.30;;;;;;;;;;6221320;23;20378;-73
2022/10/21 10:52:04;;;;;;;25.02;12.63;;;;;;;;;;6221134;23;20050;-73
2022/10/21 10:54:31;;;;;;;19.45;12.07;;;;;;;;;;6195950;23;20142;-73
2022/10/21 10:56:59;;;;;;;21.52;12.93;;;;;;;;;;6221346;23;20016;-73
2022/10/21 10:59:31;;;;;;;21.48;12.82;;;;;;;;;;6221106;23;20350;-73
2022/10/21 11:02:11;;;;;;;20.98;12.27;;;;;;;;;;6220975;23;20046;-73
2022/10/21 11:04:46;;;;;;;26.45;13.57;;;;;;;;;;6195906;23;20047;-73
2022/10/21 11:07:33;;;;;;;24.02;12.43;;;;;;;;;;6195912;23;20022;-73
2022/10/21 11:10:06;;;;;;;22.70;12.45;;;;;;;;;;6195784;23;20371;-73
2022/10/21 11:12:32;;;;;;;22.52;12.27;;;;;;;;;;6220824;23;20008;-73
2022/10/21 11:14:59;;;;;;;23.23;13.48;;;;;;;;;;6221009;23;20012;-73
2022/10/21 11:17:41;;;;;;;21.33;11.85;;;15.10;99.90;;;;;;6221027;23;20126;-73
2022/10/21 11:20:17;;;;;;;;;;;14.90;99.90;;;;;;6172117;23;20393;-73
2022/10/21 11:22:46;;;;;;;19.80;11.57;;;;;;;;;;6220842;23;19918;-73
2022/10/21 11:25:22;;;;;;;23.55;12.65;;;;;;;;;;6220865;23;20020;-73
2022/10/21 11:28:25;;;;;;;22.02;12.20;;;14.70;99.90;;;;;;6220881;23;20087;-73
2022/10/21 11:31:13;;;;;;;19.38;11.48;;;14.90;99.90;;;;;;6247723;23;21362;-73
2022/10/21 11:34:06;;;;;;;17.58;10.77;;;15.10;99.90;;;;;;6195832;23;20012;-73
2022/10/21 11:37:02;;;;;;;18.40;11.50;;;;;;;;;;6221601;23;20060;-74
2022/10/21 11:39:34;;;;;;;19.05;10.50;;;;;;;;;;6195723;23;20102;-73
2022/10/21 11:42:06;;;;;;;20.20;10.82;;;;;;;;;;6221191;23;20454;-73
2022/10/21 11:44:32;;;;;;;;;;;15.20;99.90;;;;;;6220623;23;20020;-74
2022/10/21 11:47:04;;;;;;;16.88;10.48;;;;;;;;;;6219947;23;19916;-73
2022/10/21 11:49:36;;;;;;;16.70;10.15;;;;;;;;;;6194984;23;20019;-73
2022/10/21 11:52:21;;;;;;;16.67;9.70;;;15.60;99.90;;;;;;6219957;23;20012;-73
2022/10/21 11:54:50;;;;;;;16.33;10.05;;;;;;;;;;6219526;23;20015;-73
2022/10/21 11:57:30;;;;;;;16.95;8.95;;;;;;;;;;6219787;23;20091;-73
2022/10/21 11:59:56;;;;;;;15.88;9.57;;;;;;;;;;6219925;23;20015;-72
2022/10/21 12:02:33;;;;;;;16.88;10.48;;;;;;;;;;6220430;23;20012;-72
2022/10/21 12:05:02;;;;;;;15.85;9.75;;;;;;;;;;6220253;23;20016;-72
2022/10/21 12:07:34;;;;;;;15.60;9.68;;;;;;;;;;6219928;22;20019;-72
2022/10/21 12:10:19;;;;;;;17.85;9.65;;;;;;;;;;6220210;23;20008;-72
2022/10/21 12:12:46;;;;;;;18.13;9.43;;;;;;;;;;6220187;23;20066;-72
2022/10/21 12:15:20;;;;;;;18.73;8.85;;;;;;;;;;6194865;23;20442;-72
2022/10/21 12:17:48;;;;;;;18.65;9.13;;;;;;;;;;6220108;23;20335;-72
2022/10/21 12:20:17;;;;;;;15.98;8.57;;;;;;;;;;6219943;23;20012;-72
2022/10/21 12:22:44;;;;;;;14.40;8.98;;;;;;;;;;6219963;23;20512;-72
2022/10/21 12:25:16;;;;;;;13.27;8.68;;;;;;;;;;6220124;23;20027;-72
2022/10/21 12:27:42;;;;;;;16.92;8.80;;;;;;;;;;6219775;23;20458;-72
2022/10/21 12:30:12;;;;;;;15.55;9.10;;;;;;;;;;6219790;23;20008;-72
2022/10/21 12:32:51;;;;;;;14.38;8.13;;;;;;;;;;6219846;23;20469;-72
2022/10/21 12:35:27;;;;;;;15.65;8.20;;;;;;;;;;6219997;23;20023;-72
2022/10/21 12:37:53;;;;;;;15.60;8.07;;;;;;;;;;6219860;23;20153;-71
2022/10/21 12:40:25;;;;;;;16.40;9.05;;;;;;;;;;6219708;23;20020;-72
2022/10/21 12:43:00;;;;;;;16.00;9.25;;;;;;;;;;6219765;23;20094;-72
2022/10/21 12:45:36;;;;;;;14.50;8.30;;;;;;;;;;6219435;23;20450;-76
2022/10/21 12:48:07;;;;;;;15.30;7.88;;;;;;;;;;6194999;23;20024;-72
2022/10/21 12:50:33;;;;;;;16.25;8.18;;;;;;;;;;6219822;23;20442;-71
2022/10/21 12:53:18;;;;;;;11.98;7.18;;;;;;;;;;6219890;23;20016;-71
2022/10/21 12:55:48;;;;;;;14.73;7.55;;;;;;;;;;6219842;23;20016;-72
2022/10/21 12:58:25;;;;;;;15.15;7.65;;;;;;;;;;6194345;23;20016;-72
2022/10/21 13:00:55;;;;;;;19.45;7.70;;;;;;;;;;6194490;23;20023;-72
2022/10/21 13:03:23;;;;;;;14.73;7.20;;;;;;;;;;6194179;23;20016;-72
2022/10/21 13:05:49;;;;;;;12.35;6.97;;;;;;;;;;6219823;23;20353;-72
2022/10/21 13:08:21;;;;;;;14.15;8.07;;;;;;;;;;6219448;23;20458;-72
2022/10/21 13:11:05;;;;;;;16.20;7.38;;;;;;;;;;6194572;23;20008;-72
2022/10/21 13:13:31;;;;;;;14.75;7.68;;;;;;;;;;6219551;23;20016;-72
2022/10/21 13:15:58;;;;;;;15.70;7.28;;;;;;;;;;6219738;23;20438;-72
2022/10/21 13:18:49;;;;;;;13.85;7.85;;;18.00;99.90;;;;;;6219741;23;20020;-72
2022/10/21 13:21:25;;;;;;;8.98;6.70;;;;;;;;;;6219592;23;20023;-72
2022/10/21 13:23:53;;;;;;;15.10;6.80;;;;;;;;;;6194617;23;20485;-72
2022/10/21 13:26:23;;;;;;;14.75;7.10;;;18.00;99.90;;;;;;6219642;23;20458;-72
2022/10/21 13:29:00;;;;;;;19.52;7.20;;;;;;;;;;6219626;23;20091;-71
2022/10/21 13:31:26;;;;;;;12.88;6.97;;;;;;;;;;6219662;23;20016;-71
2022/10/21 13:33:53;;;;;;;14.13;7.35;;;;;;;;;;6219769;23;20066;-72
2022/10/21 13:36:41;;;;;;;11.80;6.68;;;;;;;;;;6219717;23;20375;-72
2022/10/21 13:39:32;;;;;;;12.23;6.75;;;17.40;99.90;;;;;;6219672;23;20019;-72
2022/10/21 13:42:03;;;;;;;13.27;6.60;;;;;;;;;;6219394;23;20012;-72
2022/10/21 13:44:37;;;;;;;16.17;7.32;;;;;;;;;;6218551;23;20091;-72
2022/10/21 13:47:25;;;;;;;16.38;7.45;;;;;;;;;;6217504;23;20020;-72
2022/10/21 13:49:56;;;;;;;13.55;7.93;;;;;;;;;;6219472;23;20043;-72
2022/10/21 13:52:29;;;;;;;11.20;7.18;;;;;;;;;;6218302;23;20333;-72
2022/10/21 13:54:59;;;;;;;14.60;8.23;;;;;;;;;;6219506;23;20473;-73
2022/10/21 13:57:29;;;;;;;11.70;7.40;;;;;;;;;;6194504;23;20020;-73
2022/10/21 14:00:25;;;;;;;11.38;7.30;;;17.50;99.90;;;;;;6219398;23;20446;-73
2022/10/21 14:03:00;;;;;;;17.05;8.13;;;;;;;;;;6207387;23;20016;-73
2022/10/21 14:05:32;;;;;;;15.48;8.75;;;;;;;;;;6194507;23;20051;-74
2022/10/21 14:07:58;;;;;;;12.30;7.82;;;;;;;;;;6194374;23;20024;-74
2022/10/21 14:10:25;;;;;;;16.00;8.98;;;;;;;;;;6219518;23;20012;-73
2022/10/21 14:12:51;;;;;;;13.52;8.75;;;;;;;;;;6219487;23;20020;-73
2022/10/21 14:15:20;;;;;;;14.65;8.00;;;;;;;;;;6194925;23;20012;-74
2022/10/21 14:17:53;;;;;;;14.45;7.75;;;;;;;;;;6219045;23;20384;-74
2022/10/21 14:20:24;;;;;;;17.05;8.90;;;;;;;;;;6219063;23;20015;-73
2022/10/21 14:22:51;;;;;;;13.48;8.65;;;;;;;;;;6193883;23;20086;-73
2022/10/21 14:25:17;;;;;;;14.70;8.32;;;;;;;;;;6219194;23;20016;-74
2022/10/21 14:27:46;;;;;;;16.25;8.63;;;;;;;;;;6219067;23;20016;-74
2022/10/21 14:30:16;;;;;;;15.13;7.97;;;;;;;;;;6219204;23;20016;-74